createdAt,value
2019-06-01T00:04:03.363Z,70.35
2019-06-01T00:09:07.908Z,69.11
2019-06-01T00:14:11.297Z,69.48
2019-06-01T00:19:14.691Z,69.48
2019-06-01T00:24:18.454Z,68.92
2019-06-01T00:29:22.174Z,68.92
2019-06-01T00:34:25.881Z,68.49
2019-06-01T00:39:29.281Z,68.51
2019-06-01T00:44:33.015Z,67.52
2019-06-01T00:49:36.416Z,67.52
2019-06-01T00:54:40.176Z,67.83
2019-06-01T00:59:43.879Z,67.99
2019-06-01T01:04:48.788Z,68.34
2019-06-01T01:09:52.917Z,68.34
2019-06-01T01:14:56.678Z,68.38
2019-06-01T01:20:00.071Z,69.03
2019-06-01T01:25:04.529Z,69.21
2019-06-01T01:30:08.167Z,69.45
2019-06-01T01:35:11.644Z,69.51
2019-06-01T01:40:15.184Z,69.45
2019-06-01T01:45:18.818Z,69.69
2019-06-01T01:50:24.857Z,69.69
2019-06-01T01:55:28.255Z,69.70
2019-06-01T02:00:45.833Z,69.63
2019-06-01T02:05:49.213Z,69.58
2019-06-01T02:10:53.321Z,69.65
2019-06-01T02:15:58.217Z,69.87
2019-06-01T02:21:02.710Z,70.06
2019-06-01T02:26:06.258Z,70.10
2019-06-01T02:31:09.621Z,70.13
2019-06-01T02:36:13.316Z,70.42
2019-06-01T02:41:16.882Z,70.43
2019-06-01T02:46:20.272Z,70.29
2019-06-01T02:51:23.666Z,70.22
2019-06-01T02:56:27.061Z,70.24
2019-06-01T03:01:34.353Z,70.46
2019-06-01T03:06:39.743Z,70.60
2019-06-01T03:11:43.882Z,70.53
2019-06-01T03:16:50.459Z,70.47
2019-06-01T03:21:56.898Z,70.72
2019-06-01T03:27:02.908Z,70.84
2019-06-01T03:32:29.725Z,70.80
2019-06-01T03:37:13.576Z,70.77
2019-06-01T03:42:17.911Z,70.87
2019-06-01T03:47:21.314Z,70.94
2019-06-01T03:52:24.963Z,70.95
2019-06-01T03:57:28.414Z,71.04
2019-06-01T04:02:33.368Z,70.97
2019-06-01T04:07:39.048Z,70.93
2019-06-01T04:12:42.578Z,71.00
2019-06-01T04:17:45.980Z,71.25
2019-06-01T04:22:49.437Z,71.30
2019-06-01T04:27:52.835Z,71.38
2019-06-01T04:32:56.535Z,71.70
2019-06-01T04:38:00.237Z,72.19
2019-06-01T04:43:03.899Z,72.35
2019-06-01T04:48:08.399Z,72.72
2019-06-01T04:53:13.457Z,72.79
2019-06-01T04:58:17.018Z,72.45
2019-06-01T05:03:20.690Z,72.64
2019-06-01T05:08:24.432Z,72.91
2019-06-01T05:13:28.142Z,73.42
2019-06-01T05:18:31.599Z,73.08
2019-06-01T05:23:34.990Z,72.70
2019-06-01T05:28:38.390Z,72.25
2019-06-01T05:33:42.102Z,71.93
2019-06-01T05:38:45.820Z,72.35
2019-06-01T05:43:49.539Z,72.69
2019-06-01T05:48:53.262Z,72.33
2019-06-01T05:53:56.658Z,72.30
2019-06-01T05:59:00.411Z,72.60
2019-06-01T06:04:03.872Z,72.41
2019-06-01T06:09:09.173Z,71.75
2019-06-01T06:14:13.356Z,71.06
2019-06-01T06:19:20.263Z,70.32
2019-06-01T06:24:22.693Z,69.53
2019-06-01T06:29:26.426Z,68.51
2019-06-01T06:34:29.804Z,67.38
2019-06-01T06:39:33.437Z,66.63
2019-06-01T06:44:37.072Z,65.91
2019-06-01T06:49:40.709Z,65.69
2019-06-01T06:54:44.143Z,65.27
2019-06-01T06:59:47.774Z,65.82
2019-06-01T07:04:51.452Z,65.61
2019-06-01T07:09:55.189Z,64.97
2019-06-01T07:14:58.884Z,63.96
2019-06-01T07:20:02.518Z,62.72
2019-06-01T07:25:07.261Z,59.41
2019-06-01T07:30:11.185Z,59.52
2019-06-01T07:35:14.891Z,58.51
2019-06-01T07:40:18.583Z,58.15
2019-06-01T07:45:22.878Z,55.89
2019-06-01T07:50:26.348Z,55.93
2019-06-01T07:55:29.843Z,55.75
2019-06-01T08:00:33.369Z,54.71
2019-06-01T08:05:36.772Z,55.23
2019-06-01T08:10:40.440Z,54.41
2019-06-01T08:15:44.167Z,54.62
2019-06-01T08:20:47.564Z,53.60
2019-06-01T08:25:51.299Z,52.76
2019-06-01T08:30:54.930Z,52.22
2019-06-01T08:35:58.328Z,51.00
2019-06-01T08:41:01.731Z,51.81
2019-06-01T08:46:05.555Z,50.90
2019-06-01T08:51:09.281Z,50.36
2019-06-01T08:56:13.510Z,51.11
2019-06-01T09:01:16.911Z,51.06
2019-06-01T09:06:20.645Z,50.08
2019-06-01T09:11:25.082Z,50.09
2019-06-01T09:16:29.649Z,48.25
2019-06-01T09:21:33.652Z,45.68
2019-06-01T09:26:37.270Z,47.86
2019-06-01T09:31:40.672Z,49.20
2019-06-01T09:36:44.408Z,47.20
2019-06-01T09:41:48.128Z,46.36
2019-06-01T09:46:51.531Z,46.67
2019-06-01T09:51:54.928Z,46.16
2019-06-01T09:56:58.592Z,45.83
2019-06-01T10:02:02.225Z,45.98
2019-06-01T10:07:05.624Z,46.24
2019-06-01T10:12:09.022Z,48.90
2019-06-01T10:17:12.757Z,47.40
2019-06-01T10:22:16.478Z,48.59
2019-06-01T10:27:19.887Z,47.20
2019-06-01T10:32:23.605Z,47.99
2019-06-01T10:37:27.337Z,48.84
2019-06-01T10:42:32.677Z,48.11
2019-06-01T10:47:36.502Z,48.07
2019-06-01T10:52:40.454Z,48.51
2019-06-01T10:57:43.802Z,49.52
2019-06-01T11:02:47.199Z,47.89
2019-06-01T11:07:50.880Z,47.38
2019-06-01T11:12:54.614Z,46.37
2019-06-01T11:17:58.322Z,45.41
2019-06-01T11:23:02.143Z,43.36
2019-06-01T11:28:05.877Z,42.77
2019-06-01T11:33:09.275Z,41.99
2019-06-01T11:38:12.670Z,41.18
2019-06-01T11:43:16.417Z,41.85
2019-06-01T11:48:20.049Z,42.87
2019-06-01T11:53:23.778Z,43.94
2019-06-01T11:58:27.171Z,43.83
2019-06-01T12:03:30.574Z,44.14
2019-06-01T12:08:34.370Z,42.60
2019-06-01T12:13:38.390Z,42.69
2019-06-01T12:18:42.646Z,43.64
2019-06-01T12:23:47.469Z,42.63
2019-06-01T12:28:51.071Z,42.70
2019-06-01T12:33:54.757Z,44.67
2019-06-01T12:38:58.162Z,41.34
2019-06-01T12:44:09.124Z,41.77
2019-06-01T12:49:12.514Z,41.82
2019-06-01T12:54:16.196Z,42.21
2019-06-01T12:59:19.923Z,38.50
2019-06-01T13:04:23.641Z,41.13
2019-06-01T13:09:27.278Z,42.91
2019-06-01T13:14:30.977Z,41.38
2019-06-01T13:19:34.697Z,41.52
2019-06-01T13:24:38.098Z,42.89
2019-06-01T13:29:41.834Z,43.05
2019-06-01T13:34:45.309Z,44.30
2019-06-01T13:39:55.615Z,41.61
2019-06-01T13:44:54.650Z,40.33
2019-06-01T13:49:58.358Z,39.72
2019-06-01T13:55:02.253Z,38.16
2019-06-01T14:00:09.307Z,36.33
2019-06-01T14:05:13.211Z,37.06
2019-06-01T14:10:17.134Z,37.56
2019-06-01T14:15:20.531Z,38.08
2019-06-01T14:20:23.939Z,37.99
2019-06-01T14:25:27.583Z,35.42
2019-06-01T14:30:30.980Z,34.50
2019-06-01T14:35:35.841Z,32.72
2019-06-01T14:40:41.509Z,34.98
2019-06-01T14:45:45.236Z,34.50
2019-06-01T14:50:49.549Z,35.12
2019-06-01T14:55:53.888Z,35.50
2019-06-01T15:00:58.518Z,32.91
2019-06-01T15:06:02.228Z,33.95
2019-06-01T15:11:05.930Z,34.98
2019-06-01T15:16:09.563Z,34.41
2019-06-01T15:21:12.960Z,33.43
2019-06-01T15:26:16.594Z,34.04
2019-06-01T15:31:20.233Z,34.48
2019-06-01T15:36:23.947Z,33.37
2019-06-01T15:41:27.603Z,34.36
2019-06-01T15:46:31.008Z,35.45
2019-06-01T15:51:34.749Z,34.60
2019-06-01T15:56:38.149Z,33.18
2019-06-01T16:01:41.553Z,34.11
2019-06-01T16:06:44.939Z,35.39
2019-06-01T16:11:48.579Z,34.54
2019-06-01T16:16:53.731Z,33.27
2019-06-01T16:21:58.069Z,33.68
2019-06-01T16:27:02.670Z,34.18
2019-06-01T16:32:06.455Z,33.38
2019-06-01T16:37:10.183Z,34.79
2019-06-01T16:42:13.685Z,33.77
2019-06-01T16:47:17.358Z,33.47
2019-06-01T16:52:21.037Z,34.04
2019-06-01T16:57:24.781Z,33.96
2019-06-01T17:02:28.154Z,34.61
2019-06-01T17:07:31.892Z,35.41
2019-06-01T17:12:35.289Z,35.59
2019-06-01T17:17:39.026Z,35.58
2019-06-01T17:22:42.759Z,35.39
2019-06-01T17:27:46.159Z,35.69
2019-06-01T17:32:49.553Z,34.84
2019-06-01T17:37:53.122Z,36.49
2019-06-01T17:42:56.517Z,37.02
2019-06-01T17:48:15.910Z,36.99
2019-06-01T17:53:06.715Z,37.23
2019-06-01T17:58:12.228Z,40.06
2019-06-01T18:03:15.657Z,42.04
2019-06-01T18:08:19.129Z,42.31
2019-06-01T18:13:22.711Z,43.15
2019-06-01T18:18:26.111Z,44.71
2019-06-01T18:23:29.508Z,45.48
2019-06-01T18:28:33.273Z,46.09
2019-06-01T18:33:36.685Z,47.94
2019-06-01T18:38:40.085Z,49.00
2019-06-01T18:43:43.825Z,49.69
2019-06-01T18:48:47.461Z,51.05
2019-06-01T18:53:51.166Z,52.52
2019-06-01T18:58:54.567Z,53.36
2019-06-01T19:03:58.298Z,54.11
2019-06-01T19:09:01.707Z,54.93
2019-06-01T19:14:05.689Z,55.69
2019-06-01T19:19:10.241Z,56.11
2019-06-01T19:24:14.701Z,56.40
2019-06-01T19:29:18.343Z,56.79
2019-06-01T19:34:21.970Z,57.12
2019-06-01T19:39:25.934Z,57.81
2019-06-01T19:44:29.600Z,58.34
2019-06-01T19:49:32.995Z,59.03
2019-06-01T19:54:36.396Z,59.42
2019-06-01T19:59:39.795Z,59.71
2019-06-01T20:04:43.197Z,60.31
2019-06-01T20:09:46.648Z,60.73
2019-06-01T20:14:52.084Z,60.80
2019-06-01T20:19:55.774Z,60.94
2019-06-01T20:24:59.411Z,61.08
2019-06-01T20:30:03.325Z,61.41
2019-06-01T20:35:07.379Z,61.60
2019-06-01T20:40:12.174Z,61.61
2019-06-01T20:45:16.806Z,61.72
2019-06-01T20:50:20.943Z,62.19
2019-06-01T20:55:24.686Z,62.35
2019-06-01T21:00:31.701Z,62.55
2019-06-01T21:05:33.532Z,62.61
2019-06-01T21:10:37.174Z,62.41
2019-06-01T21:15:40.912Z,62.79
2019-06-01T21:20:44.299Z,63.45
2019-06-01T21:25:48.057Z,63.72
2019-06-01T21:30:51.763Z,63.58
2019-06-01T21:35:55.162Z,63.35
2019-06-01T21:40:58.571Z,63.46
2019-06-01T21:46:03.018Z,63.61
2019-06-01T21:51:06.750Z,63.83
2019-06-01T21:56:10.157Z,63.97
2019-06-01T22:01:14.400Z,63.93
2019-06-01T22:06:18.954Z,64.11
2019-06-01T22:11:23.509Z,64.41
2019-06-01T22:16:27.882Z,64.65
2019-06-01T22:21:31.415Z,64.79
2019-06-01T22:26:35.152Z,64.84
2019-06-01T22:31:38.866Z,64.96
2019-06-01T22:36:42.263Z,65.03
2019-06-01T22:41:46.003Z,64.53
2019-06-01T22:46:49.749Z,64.82
2019-06-01T22:51:53.144Z,63.81
2019-06-01T22:56:56.858Z,64.14
2019-06-01T23:02:00.578Z,64.54
2019-06-01T23:07:04.163Z,64.92
2019-06-01T23:12:07.819Z,65.21
2019-06-01T23:17:11.539Z,65.58
2019-06-01T23:22:15.265Z,65.94
2019-06-01T23:27:18.662Z,66.01
2019-06-01T23:32:22.467Z,66.24
2019-06-01T23:37:26.677Z,66.27
2019-06-01T23:42:30.900Z,66.19
2019-06-01T23:47:34.586Z,66.29
2019-06-01T23:52:37.987Z,66.42
2019-06-01T23:57:41.759Z,66.59
